sensor_id;sensor_type;location;lat;lon;timestamp;P1;durP1;ratioP1;P2;durP2;ratioP2
47860;SDS011;33620;52.340;5.984;2023-06-01T00:01:46;16.05;;;6.70;;
47860;SDS011;33620;52.340;5.984;2023-06-01T00:04:11;13.60;;;6.15;;
47860;SDS011;33620;52.340;5.984;2023-06-01T00:06:38;14.40;;;6.07;;
47860;SDS011;33620;52.340;5.984;2023-06-01T00:09:03;13.85;;;6.40;;
47860;SDS011;33620;52.340;5.984;2023-06-01T00:11:29;19.02;;;7.15;;
47860;SDS011;33620;52.340;5.984;2023-06-01T00:13:54;16.50;;;6.88;;
47860;SDS011;33620;52.340;5.984;2023-06-01T00:16:20;14.02;;;6.05;;
47860;SDS011;33620;52.340;5.984;2023-06-01T00:18:47;20.45;;;7.35;;
47860;SDS011;33620;52.340;5.984;2023-06-01T00:21:13;15.10;;;6.95;;
47860;SDS011;33620;52.340;5.984;2023-06-01T00:23:39;19.52;;;8.70;;
47860;SDS011;33620;52.340;5.984;2023-06-01T00:26:06;17.58;;;7.28;;
47860;SDS011;33620;52.340;5.984;2023-06-01T00:28:32;16.90;;;7.18;;
47860;SDS011;33620;52.340;5.984;2023-06-01T00:30:57;16.58;;;7.18;;
47860;SDS011;33620;52.340;5.984;2023-06-01T00:33:23;13.90;;;7.38;;
47860;SDS011;33620;52.340;5.984;2023-06-01T00:35:48;17.17;;;7.30;;
47860;SDS011;33620;52.340;5.984;2023-06-01T00:38:15;19.90;;;7.80;;
47860;SDS011;33620;52.340;5.984;2023-06-01T00:40:40;17.08;;;7.70;;
47860;SDS011;33620;52.340;5.984;2023-06-01T00:43:06;17.25;;;7.28;;
47860;SDS011;33620;52.340;5.984;2023-06-01T00:45:31;19.55;;;8.70;;
47860;SDS011;33620;52.340;5.984;2023-06-01T00:47:56;18.92;;;7.88;;
47860;SDS011;33620;52.340;5.984;2023-06-01T00:50:23;16.98;;;7.70;;
47860;SDS011;33620;52.340;5.984;2023-06-01T00:52:49;14.30;;;6.53;;
47860;SDS011;33620;52.340;5.984;2023-06-01T00:55:16;17.80;;;8.02;;
47860;SDS011;33620;52.340;5.984;2023-06-01T00:57:44;16.40;;;7.10;;
47860;SDS011;33620;52.340;5.984;2023-06-01T01:00:11;20.75;;;8.73;;
47860;SDS011;33620;52.340;5.984;2023-06-01T01:02:41;21.48;;;8.50;;
47860;SDS011;33620;52.340;5.984;2023-06-01T01:05:07;19.52;;;8.13;;
47860;SDS011;33620;52.340;5.984;2023-06-01T01:13:17;15.70;;;8.18;;
47860;SDS011;33620;52.340;5.984;2023-06-01T01:16:12;20.23;;;8.73;;
47860;SDS011;33620;52.340;5.984;2023-06-01T01:18:46;21.35;;;9.95;;
47860;SDS011;33620;52.340;5.984;2023-06-01T01:21:21;17.80;;;7.78;;
47860;SDS011;33620;52.340;5.984;2023-06-01T01:27:17;18.20;;;8.00;;
47860;SDS011;33620;52.340;5.984;2023-06-01T01:29:54;18.58;;;8.25;;
47860;SDS011;33620;52.340;5.984;2023-06-01T01:32:30;19.27;;;8.15;;
47860;SDS011;33620;52.340;5.984;2023-06-01T01:34:56;17.52;;;7.95;;
47860;SDS011;33620;52.340;5.984;2023-06-01T01:37:23;18.48;;;8.52;;
47860;SDS011;33620;52.340;5.984;2023-06-01T01:39:48;17.20;;;7.63;;
47860;SDS011;33620;52.340;5.984;2023-06-01T01:42:14;19.48;;;8.05;;
47860;SDS011;33620;52.340;5.984;2023-06-01T01:44:39;19.75;;;7.53;;
47860;SDS011;33620;52.340;5.984;2023-06-01T01:49:37;17.52;;;6.80;;
47860;SDS011;33620;52.340;5.984;2023-06-01T01:54:49;15.57;;;6.88;;
47860;SDS011;33620;52.340;5.984;2023-06-01T01:57:16;18.80;;;6.47;;
47860;SDS011;33620;52.340;5.984;2023-06-01T01:59:42;19.25;;;7.93;;
47860;SDS011;33620;52.340;5.984;2023-06-01T02:02:08;16.77;;;7.30;;
47860;SDS011;33620;52.340;5.984;2023-06-01T02:04:41;15.57;;;6.93;;
47860;SDS011;33620;52.340;5.984;2023-06-01T02:07:07;15.15;;;6.18;;
47860;SDS011;33620;52.340;5.984;2023-06-01T02:09:33;16.02;;;6.97;;
47860;SDS011;33620;52.340;5.984;2023-06-01T02:11:59;17.25;;;7.30;;
47860;SDS011;33620;52.340;5.984;2023-06-01T02:14:25;21.48;;;7.38;;
47860;SDS011;33620;52.340;5.984;2023-06-01T02:16:50;19.25;;;6.72;;
47860;SDS011;33620;52.340;5.984;2023-06-01T02:19:16;19.38;;;6.75;;
47860;SDS011;33620;52.340;5.984;2023-06-01T02:21:42;15.25;;;6.68;;
47860;SDS011;33620;52.340;5.984;2023-06-01T02:24:08;17.23;;;8.15;;
47860;SDS011;33620;52.340;5.984;2023-06-01T02:26:33;17.95;;;7.47;;
47860;SDS011;33620;52.340;5.984;2023-06-01T02:28:59;18.45;;;7.25;;
47860;SDS011;33620;52.340;5.984;2023-06-01T02:31:27;19.15;;;6.82;;
47860;SDS011;33620;52.340;5.984;2023-06-01T02:33:52;20.10;;;7.70;;
47860;SDS011;33620;52.340;5.984;2023-06-01T02:36:18;20.67;;;7.65;;
47860;SDS011;33620;52.340;5.984;2023-06-01T02:38:43;17.70;;;7.40;;
47860;SDS011;33620;52.340;5.984;2023-06-01T02:41:09;20.45;;;8.05;;
47860;SDS011;33620;52.340;5.984;2023-06-01T02:43:34;20.02;;;7.60;;
47860;SDS011;33620;52.340;5.984;2023-06-01T02:46:00;19.25;;;7.72;;
47860;SDS011;33620;52.340;5.984;2023-06-01T02:48:25;17.17;;;7.43;;
47860;SDS011;33620;52.340;5.984;2023-06-01T02:50:51;17.13;;;7.28;;
47860;SDS011;33620;52.340;5.984;2023-06-01T02:53:16;19.73;;;7.78;;
47860;SDS011;33620;52.340;5.984;2023-06-01T02:55:42;21.60;;;7.75;;
47860;SDS011;33620;52.340;5.984;2023-06-01T02:58:07;19.27;;;7.22;;
47860;SDS011;33620;52.340;5.984;2023-06-01T03:00:39;16.27;;;7.00;;
47860;SDS011;33620;52.340;5.984;2023-06-01T03:03:05;21.92;;;7.53;;
47860;SDS011;33620;52.340;5.984;2023-06-01T03:05:30;20.88;;;7.75;;
47860;SDS011;33620;52.340;5.984;2023-06-01T03:07:58;19.15;;;7.88;;
47860;SDS011;33620;52.340;5.984;2023-06-01T03:10:23;17.58;;;7.82;;
47860;SDS011;33620;52.340;5.984;2023-06-01T03:12:49;23.27;;;8.23;;
47860;SDS011;33620;52.340;5.984;2023-06-01T03:15:14;19.50;;;8.15;;
47860;SDS011;33620;52.340;5.984;2023-06-01T03:17:40;21.45;;;8.93;;
47860;SDS011;33620;52.340;5.984;2023-06-01T03:20:06;19.20;;;7.68;;
47860;SDS011;33620;52.340;5.984;2023-06-01T03:22:39;23.17;;;8.80;;
47860;SDS011;33620;52.340;5.984;2023-06-01T03:25:06;20.30;;;7.97;;
47860;SDS011;33620;52.340;5.984;2023-06-01T03:27:32;14.40;;;7.68;;
47860;SDS011;33620;52.340;5.984;2023-06-01T03:29:57;21.55;;;7.40;;
47860;SDS011;33620;52.340;5.984;2023-06-01T03:32:23;18.98;;;7.88;;
47860;SDS011;33620;52.340;5.984;2023-06-01T03:34:48;16.75;;;8.40;;
47860;SDS011;33620;52.340;5.984;2023-06-01T03:37:14;22.35;;;7.45;;
47860;SDS011;33620;52.340;5.984;2023-06-01T03:39:39;22.92;;;8.50;;
47860;SDS011;33620;52.340;5.984;2023-06-01T03:42:05;22.52;;;8.50;;
47860;SDS011;33620;52.340;5.984;2023-06-01T03:44:32;20.55;;;8.10;;
47860;SDS011;33620;52.340;5.984;2023-06-01T03:46:57;21.27;;;8.98;;
47860;SDS011;33620;52.340;5.984;2023-06-01T03:49:23;19.73;;;8.00;;
47860;SDS011;33620;52.340;5.984;2023-06-01T03:51:48;19.58;;;7.95;;
47860;SDS011;33620;52.340;5.984;2023-06-01T03:54:13;19.55;;;7.78;;
47860;SDS011;33620;52.340;5.984;2023-06-01T03:56:39;19.35;;;7.80;;
47860;SDS011;33620;52.340;5.984;2023-06-01T03:59:05;20.00;;;8.90;;
47860;SDS011;33620;52.340;5.984;2023-06-01T04:01:32;21.38;;;8.05;;
47860;SDS011;33620;52.340;5.984;2023-06-01T04:03:58;22.77;;;9.02;;
47860;SDS011;33620;52.340;5.984;2023-06-01T04:06:24;17.42;;;8.15;;
47860;SDS011;33620;52.340;5.984;2023-06-01T04:08:50;16.98;;;7.93;;
47860;SDS011;33620;52.340;5.984;2023-06-01T04:11:20;20.17;;;8.93;;
47860;SDS011;33620;52.340;5.984;2023-06-01T04:13:47;17.27;;;7.80;;
47860;SDS011;33620;52.340;5.984;2023-06-01T04:16:12;21.73;;;8.00;;
47860;SDS011;33620;52.340;5.984;2023-06-01T04:18:38;17.33;;;7.75;;
47860;SDS011;33620;52.340;5.984;2023-06-01T04:21:03;19.55;;;7.63;;
47860;SDS011;33620;52.340;5.984;2023-06-01T04:23:29;22.73;;;8.07;;
47860;SDS011;33620;52.340;5.984;2023-06-01T04:25:55;19.40;;;8.13;;
47860;SDS011;33620;52.340;5.984;2023-06-01T04:28:24;18.20;;;8.27;;
47860;SDS011;33620;52.340;5.984;2023-06-01T04:30:50;19.33;;;7.80;;
47860;SDS011;33620;52.340;5.984;2023-06-01T04:33:18;23.75;;;8.65;;
47860;SDS011;33620;52.340;5.984;2023-06-01T04:35:43;17.58;;;7.38;;
47860;SDS011;33620;52.340;5.984;2023-06-01T04:38:08;19.80;;;7.40;;
47860;SDS011;33620;52.340;5.984;2023-06-01T04:40:34;20.55;;;8.05;;
47860;SDS011;33620;52.340;5.984;2023-06-01T04:43:00;21.55;;;7.80;;
47860;SDS011;33620;52.340;5.984;2023-06-01T04:45:28;22.30;;;8.07;;
47860;SDS011;33620;52.340;5.984;2023-06-01T04:47:56;22.50;;;8.93;;
47860;SDS011;33620;52.340;5.984;2023-06-01T04:50:22;21.83;;;8.25;;
47860;SDS011;33620;52.340;5.984;2023-06-01T04:52:48;19.73;;;7.88;;
47860;SDS011;33620;52.340;5.984;2023-06-01T04:55:15;22.10;;;8.13;;
47860;SDS011;33620;52.340;5.984;2023-06-01T04:57:41;17.48;;;7.47;;
47860;SDS011;33620;52.340;5.984;2023-06-01T05:00:11;19.23;;;8.30;;
47860;SDS011;33620;52.340;5.984;2023-06-01T05:02:41;19.42;;;7.55;;
47860;SDS011;33620;52.340;5.984;2023-06-01T05:05:11;21.77;;;7.63;;
47860;SDS011;33620;52.340;5.984;2023-06-01T05:07:37;21.60;;;7.95;;
47860;SDS011;33620;52.340;5.984;2023-06-01T05:10:04;19.08;;;7.97;;
47860;SDS011;33620;52.340;5.984;2023-06-01T05:12:31;22.08;;;8.05;;
47860;SDS011;33620;52.340;5.984;2023-06-01T05:14:57;21.85;;;8.57;;
47860;SDS011;33620;52.340;5.984;2023-06-01T05:17:22;20.35;;;8.27;;
47860;SDS011;33620;52.340;5.984;2023-06-01T05:19:48;23.50;;;8.32;;
47860;SDS011;33620;52.340;5.984;2023-06-01T05:22:13;23.40;;;8.45;;
47860;SDS011;33620;52.340;5.984;2023-06-01T05:24:38;17.27;;;7.43;;
47860;SDS011;33620;52.340;5.984;2023-06-01T05:27:04;19.13;;;7.97;;
47860;SDS011;33620;52.340;5.984;2023-06-01T05:29:30;23.88;;;8.40;;
47860;SDS011;33620;52.340;5.984;2023-06-01T05:31:56;20.58;;;7.90;;
47860;SDS011;33620;52.340;5.984;2023-06-01T05:34:21;19.38;;;7.57;;
47860;SDS011;33620;52.340;5.984;2023-06-01T05:36:48;19.08;;;7.93;;
47860;SDS011;33620;52.340;5.984;2023-06-01T05:39:14;17.00;;;8.20;;
47860;SDS011;33620;52.340;5.984;2023-06-01T05:41:40;21.38;;;7.65;;
47860;SDS011;33620;52.340;5.984;2023-06-01T05:44:06;23.00;;;8.48;;
47860;SDS011;33620;52.340;5.984;2023-06-01T05:46:31;20.20;;;8.13;;
47860;SDS011;33620;52.340;5.984;2023-06-01T05:48:57;17.67;;;7.88;;
47860;SDS011;33620;52.340;5.984;2023-06-01T05:51:22;19.10;;;8.07;;
47860;SDS011;33620;52.340;5.984;2023-06-01T05:53:48;20.30;;;8.30;;
47860;SDS011;33620;52.340;5.984;2023-06-01T05:56:13;20.42;;;7.80;;
47860;SDS011;33620;52.340;5.984;2023-06-01T05:58:38;19.58;;;8.10;;
47860;SDS011;33620;52.340;5.984;2023-06-01T06:01:04;20.83;;;8.00;;
47860;SDS011;33620;52.340;5.984;2023-06-01T06:03:30;22.17;;;8.40;;
47860;SDS011;33620;52.340;5.984;2023-06-01T06:05:55;18.17;;;6.93;;
47860;SDS011;33620;52.340;5.984;2023-06-01T06:08:21;17.67;;;8.07;;
47860;SDS011;33620;52.340;5.984;2023-06-01T06:10:46;19.20;;;7.13;;
47860;SDS011;33620;52.340;5.984;2023-06-01T06:13:13;18.25;;;7.05;;
47860;SDS011;33620;52.340;5.984;2023-06-01T06:15:39;17.48;;;7.55;;
47860;SDS011;33620;52.340;5.984;2023-06-01T06:18:04;17.23;;;6.25;;
47860;SDS011;33620;52.340;5.984;2023-06-01T06:20:30;18.50;;;6.57;;
47860;SDS011;33620;52.340;5.984;2023-06-01T06:22:56;18.55;;;7.53;;
47860;SDS011;33620;52.340;5.984;2023-06-01T06:25:21;19.23;;;6.88;;
47860;SDS011;33620;52.340;5.984;2023-06-01T06:27:47;22.40;;;6.82;;
47860;SDS011;33620;52.340;5.984;2023-06-01T06:30:13;18.25;;;7.22;;
47860;SDS011;33620;52.340;5.984;2023-06-01T06:32:38;20.30;;;7.38;;
47860;SDS011;33620;52.340;5.984;2023-06-01T06:35:04;17.95;;;7.32;;
47860;SDS011;33620;52.340;5.984;2023-06-01T06:37:29;17.88;;;7.72;;
47860;SDS011;33620;52.340;5.984;2023-06-01T06:39:55;16.95;;;7.53;;
47860;SDS011;33620;52.340;5.984;2023-06-01T06:42:21;17.52;;;7.65;;
47860;SDS011;33620;52.340;5.984;2023-06-01T06:44:46;20.77;;;7.15;;
47860;SDS011;33620;52.340;5.984;2023-06-01T06:47:12;19.58;;;7.72;;
47860;SDS011;33620;52.340;5.984;2023-06-01T06:49:40;20.25;;;7.75;;
47860;SDS011;33620;52.340;5.984;2023-06-01T06:52:06;19.60;;;8.20;;
47860;SDS011;33620;52.340;5.984;2023-06-01T06:54:34;18.90;;;8.05;;
47860;SDS011;33620;52.340;5.984;2023-06-01T06:57:00;16.48;;;7.18;;
47860;SDS011;33620;52.340;5.984;2023-06-01T06:59:25;19.80;;;7.68;;
47860;SDS011;33620;52.340;5.984;2023-06-01T07:01:51;16.55;;;6.82;;
47860;SDS011;33620;52.340;5.984;2023-06-01T07:04:16;19.00;;;7.07;;
47860;SDS011;33620;52.340;5.984;2023-06-01T07:06:42;17.88;;;6.90;;
47860;SDS011;33620;52.340;5.984;2023-06-01T07:09:07;16.77;;;7.00;;
47860;SDS011;33620;52.340;5.984;2023-06-01T07:11:34;15.48;;;6.13;;
47860;SDS011;33620;52.340;5.984;2023-06-01T07:13:59;15.57;;;6.55;;
47860;SDS011;33620;52.340;5.984;2023-06-01T07:16:25;16.88;;;5.93;;
47860;SDS011;33620;52.340;5.984;2023-06-01T07:18:50;15.73;;;6.50;;
47860;SDS011;33620;52.340;5.984;2023-06-01T07:21:17;15.10;;;6.22;;
47860;SDS011;33620;52.340;5.984;2023-06-01T07:23:42;15.63;;;6.03;;
47860;SDS011;33620;52.340;5.984;2023-06-01T07:26:08;14.52;;;5.78;;
47860;SDS011;33620;52.340;5.984;2023-06-01T07:28:34;17.45;;;6.00;;
47860;SDS011;33620;52.340;5.984;2023-06-01T07:30:59;18.98;;;6.18;;
47860;SDS011;33620;52.340;5.984;2023-06-01T07:33:25;13.55;;;5.95;;
47860;SDS011;33620;52.340;5.984;2023-06-01T07:35:51;14.32;;;6.18;;
47860;SDS011;33620;52.340;5.984;2023-06-01T07:38:18;12.52;;;5.10;;
47860;SDS011;33620;52.340;5.984;2023-06-01T07:40:44;20.10;;;6.35;;
47860;SDS011;33620;52.340;5.984;2023-06-01T07:43:10;16.17;;;5.80;;
47860;SDS011;33620;52.340;5.984;2023-06-01T07:45:35;15.30;;;5.30;;
47860;SDS011;33620;52.340;5.984;2023-06-01T07:48:01;19.40;;;5.68;;
47860;SDS011;33620;52.340;5.984;2023-06-01T07:50:26;16.02;;;5.65;;
47860;SDS011;33620;52.340;5.984;2023-06-01T07:52:55;17.60;;;5.85;;
47860;SDS011;33620;52.340;5.984;2023-06-01T07:55:22;14.18;;;5.45;;
47860;SDS011;33620;52.340;5.984;2023-06-01T07:57:48;16.58;;;6.20;;
47860;SDS011;33620;52.340;5.984;2023-06-01T08:00:13;15.88;;;5.82;;
47860;SDS011;33620;52.340;5.984;2023-06-01T08:02:42;16.38;;;6.00;;
47860;SDS011;33620;52.340;5.984;2023-06-01T08:05:08;15.90;;;6.00;;
47860;SDS011;33620;52.340;5.984;2023-06-01T08:07:35;13.73;;;5.97;;
47860;SDS011;33620;52.340;5.984;2023-06-01T08:10:02;14.20;;;6.00;;
47860;SDS011;33620;52.340;5.984;2023-06-01T08:12:30;19.15;;;6.47;;
47860;SDS011;33620;52.340;5.984;2023-06-01T08:14:56;15.70;;;6.15;;
47860;SDS011;33620;52.340;5.984;2023-06-01T08:17:22;16.98;;;6.75;;
47860;SDS011;33620;52.340;5.984;2023-06-01T08:19:48;14.48;;;6.30;;
47860;SDS011;33620;52.340;5.984;2023-06-01T08:22:13;18.63;;;6.22;;
47860;SDS011;33620;52.340;5.984;2023-06-01T08:24:38;17.65;;;6.15;;
47860;SDS011;33620;52.340;5.984;2023-06-01T08:27:24;14.90;;;5.75;;
47860;SDS011;33620;52.340;5.984;2023-06-01T08:29:50;17.02;;;6.07;;
47860;SDS011;33620;52.340;5.984;2023-06-01T08:32:16;14.75;;;5.45;;
47860;SDS011;33620;52.340;5.984;2023-06-01T08:34:44;15.32;;;6.13;;
47860;SDS011;33620;52.340;5.984;2023-06-01T08:37:12;15.02;;;5.60;;
47860;SDS011;33620;52.340;5.984;2023-06-01T08:39:38;13.95;;;5.95;;
47860;SDS011;33620;52.340;5.984;2023-06-01T08:44:57;15.65;;;6.30;;
47860;SDS011;33620;52.340;5.984;2023-06-01T08:47:26;12.57;;;5.53;;
47860;SDS011;33620;52.340;5.984;2023-06-01T08:49:52;18.05;;;5.88;;
47860;SDS011;33620;52.340;5.984;2023-06-01T08:52:19;14.07;;;5.55;;
47860;SDS011;33620;52.340;5.984;2023-06-01T08:54:46;16.15;;;5.80;;
47860;SDS011;33620;52.340;5.984;2023-06-01T08:57:12;15.52;;;5.53;;
47860;SDS011;33620;52.340;5.984;2023-06-01T08:59:37;17.80;;;6.55;;
47860;SDS011;33620;52.340;5.984;2023-06-01T09:02:04;12.77;;;5.55;;
47860;SDS011;33620;52.340;5.984;2023-06-01T09:04:31;17.05;;;6.35;;
47860;SDS011;33620;52.340;5.984;2023-06-01T09:06:59;16.88;;;6.25;;
47860;SDS011;33620;52.340;5.984;2023-06-01T09:09:24;16.48;;;5.28;;
47860;SDS011;33620;52.340;5.984;2023-06-01T09:12:15;16.67;;;6.30;;
47860;SDS011;33620;52.340;5.984;2023-06-01T09:14:42;18.02;;;6.45;;
47860;SDS011;33620;52.340;5.984;2023-06-01T09:17:10;15.82;;;6.38;;
47860;SDS011;33620;52.340;5.984;2023-06-01T09:19:44;14.43;;;5.90;;
47860;SDS011;33620;52.340;5.984;2023-06-01T09:22:10;16.10;;;5.68;;
47860;SDS011;33620;52.340;5.984;2023-06-01T09:24:36;19.27;;;6.57;;
47860;SDS011;33620;52.340;5.984;2023-06-01T09:27:01;13.85;;;6.07;;
47860;SDS011;33620;52.340;5.984;2023-06-01T09:29:28;16.13;;;6.68;;
47860;SDS011;33620;52.340;5.984;2023-06-01T09:31:53;18.45;;;6.55;;
47860;SDS011;33620;52.340;5.984;2023-06-01T09:34:20;16.45;;;6.50;;
47860;SDS011;33620;52.340;5.984;2023-06-01T09:36:47;14.73;;;6.65;;
47860;SDS011;33620;52.340;5.984;2023-06-01T09:39:18;19.30;;;6.47;;
47860;SDS011;33620;52.340;5.984;2023-06-01T09:41:45;17.30;;;7.03;;
47860;SDS011;33620;52.340;5.984;2023-06-01T09:44:11;21.42;;;7.55;;
47860;SDS011;33620;52.340;5.984;2023-06-01T09:49:23;20.00;;;6.90;;
47860;SDS011;33620;52.340;5.984;2023-06-01T09:51:52;19.67;;;7.70;;
47860;SDS011;33620;52.340;5.984;2023-06-01T09:54:22;14.88;;;6.57;;
47860;SDS011;33620;52.340;5.984;2023-06-01T09:56:48;18.67;;;7.15;;
47860;SDS011;33620;52.340;5.984;2023-06-01T09:59:14;18.25;;;6.00;;
47860;SDS011;33620;52.340;5.984;2023-06-01T10:01:39;16.05;;;6.07;;
47860;SDS011;33620;52.340;5.984;2023-06-01T10:04:06;15.48;;;5.75;;
47860;SDS011;33620;52.340;5.984;2023-06-01T10:06:35;16.50;;;6.60;;
47860;SDS011;33620;52.340;5.984;2023-06-01T10:09:05;19.13;;;6.57;;
47860;SDS011;33620;52.340;5.984;2023-06-01T10:11:38;16.48;;;6.78;;
47860;SDS011;33620;52.340;5.984;2023-06-01T10:14:03;15.45;;;6.75;;
47860;SDS011;33620;52.340;5.984;2023-06-01T10:16:29;18.27;;;6.93;;
47860;SDS011;33620;52.340;5.984;2023-06-01T10:18:54;16.90;;;6.85;;
47860;SDS011;33620;52.340;5.984;2023-06-01T10:21:20;14.70;;;6.35;;
47860;SDS011;33620;52.340;5.984;2023-06-01T10:23:46;17.98;;;7.28;;
47860;SDS011;33620;52.340;5.984;2023-06-01T10:26:12;17.05;;;6.18;;
47860;SDS011;33620;52.340;5.984;2023-06-01T10:28:40;16.13;;;5.97;;
47860;SDS011;33620;52.340;5.984;2023-06-01T10:34:07;16.77;;;6.93;;
47860;SDS011;33620;52.340;5.984;2023-06-01T10:41:49;20.83;;;7.80;;
47860;SDS011;33620;52.340;5.984;2023-06-01T10:47:50;16.95;;;5.97;;
47860;SDS011;33620;52.340;5.984;2023-06-01T10:54:51;18.10;;;6.30;;
47860;SDS011;33620;52.340;5.984;2023-06-01T10:57:24;15.40;;;6.22;;
47860;SDS011;33620;52.340;5.984;2023-06-01T11:02:34;14.38;;;5.47;;
47860;SDS011;33620;52.340;5.984;2023-06-01T11:13:15;13.02;;;4.75;;
47860;SDS011;33620;52.340;5.984;2023-06-01T11:21:07;13.07;;;5.28;;
47860;SDS011;33620;52.340;5.984;2023-06-01T11:23:37;12.13;;;5.05;;
47860;SDS011;33620;52.340;5.984;2023-06-01T11:26:05;10.73;;;4.95;;
47860;SDS011;33620;52.340;5.984;2023-06-01T11:28:31;10.77;;;5.22;;
47860;SDS011;33620;52.340;5.984;2023-06-01T11:30:57;11.65;;;5.20;;
47860;SDS011;33620;52.340;5.984;2023-06-01T11:33:27;14.23;;;5.47;;
47860;SDS011;33620;52.340;5.984;2023-06-01T11:35:57;9.60;;;4.90;;
47860;SDS011;33620;52.340;5.984;2023-06-01T11:38:23;12.93;;;6.22;;
47860;SDS011;33620;52.340;5.984;2023-06-01T11:40:57;13.63;;;5.80;;
47860;SDS011;33620;52.340;5.984;2023-06-01T11:43:29;9.00;;;5.15;;
47860;SDS011;33620;52.340;5.984;2023-06-01T11:46:01;11.40;;;5.47;;
47860;SDS011;33620;52.340;5.984;2023-06-01T11:48:31;14.70;;;5.93;;
47860;SDS011;33620;52.340;5.984;2023-06-01T11:50:59;11.05;;;4.78;;
47860;SDS011;33620;52.340;5.984;2023-06-01T11:53:25;13.32;;;5.68;;
47860;SDS011;33620;52.340;5.984;2023-06-01T11:55:52;9.77;;;5.03;;
47860;SDS011;33620;52.340;5.984;2023-06-01T11:58:28;9.93;;;5.20;;
47860;SDS011;33620;52.340;5.984;2023-06-01T12:00:54;6.57;;;4.22;;
47860;SDS011;33620;52.340;5.984;2023-06-01T12:03:21;10.65;;;5.25;;
47860;SDS011;33620;52.340;5.984;2023-06-01T12:05:49;13.50;;;4.82;;
47860;SDS011;33620;52.340;5.984;2023-06-01T12:08:15;14.50;;;5.90;;
47860;SDS011;33620;52.340;5.984;2023-06-01T12:10:44;15.90;;;5.90;;
47860;SDS011;33620;52.340;5.984;2023-06-01T12:13:10;13.82;;;5.90;;
47860;SDS011;33620;52.340;5.984;2023-06-01T12:15:36;13.70;;;6.68;;
47860;SDS011;33620;52.340;5.984;2023-06-01T12:18:02;16.15;;;6.70;;
47860;SDS011;33620;52.340;5.984;2023-06-01T12:22:58;16.75;;;7.10;;
47860;SDS011;33620;52.340;5.984;2023-06-01T12:25:28;15.57;;;7.15;;
47860;SDS011;33620;52.340;5.984;2023-06-01T12:30:30;17.73;;;6.72;;
47860;SDS011;33620;52.340;5.984;2023-06-01T12:32:56;18.48;;;6.75;;
47860;SDS011;33620;52.340;5.984;2023-06-01T12:35:21;15.95;;;7.07;;
47860;SDS011;33620;52.340;5.984;2023-06-01T12:38:05;21.98;;;7.57;;
47860;SDS011;33620;52.340;5.984;2023-06-01T12:40:32;14.85;;;6.50;;
47860;SDS011;33620;52.340;5.984;2023-06-01T12:42:58;13.73;;;5.82;;
47860;SDS011;33620;52.340;5.984;2023-06-01T12:45:24;16.08;;;5.75;;
47860;SDS011;33620;52.340;5.984;2023-06-01T12:47:49;15.18;;;6.35;;
47860;SDS011;33620;52.340;5.984;2023-06-01T12:50:15;14.70;;;6.72;;
47860;SDS011;33620;52.340;5.984;2023-06-01T12:52:40;17.10;;;7.18;;
47860;SDS011;33620;52.340;5.984;2023-06-01T12:55:09;16.40;;;6.50;;
47860;SDS011;33620;52.340;5.984;2023-06-01T12:57:35;16.38;;;6.75;;
47860;SDS011;33620;52.340;5.984;2023-06-01T13:00:03;15.98;;;6.22;;
47860;SDS011;33620;52.340;5.984;2023-06-01T13:02:30;16.58;;;7.10;;
47860;SDS011;33620;52.340;5.984;2023-06-01T13:04:55;18.88;;;6.80;;
47860;SDS011;33620;52.340;5.984;2023-06-01T13:07:23;18.98;;;6.63;;
47860;SDS011;33620;52.340;5.984;2023-06-01T13:09:48;15.85;;;6.38;;
47860;SDS011;33620;52.340;5.984;2023-06-01T13:12:14;14.40;;;6.13;;
47860;SDS011;33620;52.340;5.984;2023-06-01T13:14:39;17.98;;;6.78;;
47860;SDS011;33620;52.340;5.984;2023-06-01T13:17:05;13.82;;;5.95;;
47860;SDS011;33620;52.340;5.984;2023-06-01T13:19:30;15.98;;;6.20;;
47860;SDS011;33620;52.340;5.984;2023-06-01T13:21:55;15.20;;;6.15;;
47860;SDS011;33620;52.340;5.984;2023-06-01T13:24:21;20.80;;;6.57;;
47860;SDS011;33620;52.340;5.984;2023-06-01T13:26:47;14.82;;;6.28;;
47860;SDS011;33620;52.340;5.984;2023-06-01T13:29:12;24.20;;;6.05;;
47860;SDS011;33620;52.340;5.984;2023-06-01T13:31:38;16.00;;;5.97;;
47860;SDS011;33620;52.340;5.984;2023-06-01T13:34:04;14.57;;;5.70;;
47860;SDS011;33620;52.340;5.984;2023-06-01T13:36:29;16.02;;;6.10;;
47860;SDS011;33620;52.340;5.984;2023-06-01T13:38:55;15.75;;;6.50;;
47860;SDS011;33620;52.340;5.984;2023-06-01T13:41:21;14.82;;;5.70;;
47860;SDS011;33620;52.340;5.984;2023-06-01T13:43:46;12.93;;;5.60;;
47860;SDS011;33620;52.340;5.984;2023-06-01T13:46:12;12.77;;;5.10;;
47860;SDS011;33620;52.340;5.984;2023-06-01T13:48:38;12.32;;;5.25;;
47860;SDS011;33620;52.340;5.984;2023-06-01T13:51:03;13.23;;;5.00;;
47860;SDS011;33620;52.340;5.984;2023-06-01T13:53:30;11.23;;;4.72;;
47860;SDS011;33620;52.340;5.984;2023-06-01T13:55:55;13.10;;;4.97;;
47860;SDS011;33620;52.340;5.984;2023-06-01T13:58:21;12.15;;;4.43;;
47860;SDS011;33620;52.340;5.984;2023-06-01T14:00:47;9.50;;;4.30;;
47860;SDS011;33620;52.340;5.984;2023-06-01T14:03:12;9.00;;;4.00;;
47860;SDS011;33620;52.340;5.984;2023-06-01T14:05:38;10.02;;;4.18;;
47860;SDS011;33620;52.340;5.984;2023-06-01T14:08:03;11.57;;;4.13;;
47860;SDS011;33620;52.340;5.984;2023-06-01T14:10:30;12.73;;;4.30;;
47860;SDS011;33620;52.340;5.984;2023-06-01T14:12:56;10.73;;;4.32;;
47860;SDS011;33620;52.340;5.984;2023-06-01T14:15:21;12.32;;;4.10;;
47860;SDS011;33620;52.340;5.984;2023-06-01T14:17:47;10.93;;;4.50;;
47860;SDS011;33620;52.340;5.984;2023-06-01T14:20:12;10.27;;;4.07;;
47860;SDS011;33620;52.340;5.984;2023-06-01T14:22:38;11.43;;;4.63;;
47860;SDS011;33620;52.340;5.984;2023-06-01T14:25:03;8.77;;;3.60;;
47860;SDS011;33620;52.340;5.984;2023-06-01T14:27:29;8.60;;;4.10;;
47860;SDS011;33620;52.340;5.984;2023-06-01T14:29:54;7.82;;;4.00;;
47860;SDS011;33620;52.340;5.984;2023-06-01T14:32:20;6.32;;;3.55;;
47860;SDS011;33620;52.340;5.984;2023-06-01T14:34:45;10.43;;;4.25;;
47860;SDS011;33620;52.340;5.984;2023-06-01T14:37:10;8.70;;;3.55;;
47860;SDS011;33620;52.340;5.984;2023-06-01T14:39:37;8.57;;;4.07;;
47860;SDS011;33620;52.340;5.984;2023-06-01T14:42:03;11.27;;;3.70;;
47860;SDS011;33620;52.340;5.984;2023-06-01T14:44:28;11.10;;;3.83;;
47860;SDS011;33620;52.340;5.984;2023-06-01T14:46:54;8.25;;;3.70;;
47860;SDS011;33620;52.340;5.984;2023-06-01T14:49:20;11.00;;;4.22;;
47860;SDS011;33620;52.340;5.984;2023-06-01T14:51:45;8.80;;;4.43;;
47860;SDS011;33620;52.340;5.984;2023-06-01T14:54:10;12.38;;;4.10;;
47860;SDS011;33620;52.340;5.984;2023-06-01T14:56:36;15.18;;;4.47;;
47860;SDS011;33620;52.340;5.984;2023-06-01T14:59:01;11.63;;;5.05;;
47860;SDS011;33620;52.340;5.984;2023-06-01T15:01:27;15.20;;;4.97;;
47860;SDS011;33620;52.340;5.984;2023-06-01T15:03:53;14.23;;;4.88;;
47860;SDS011;33620;52.340;5.984;2023-06-01T15:06:18;12.57;;;4.93;;
47860;SDS011;33620;52.340;5.984;2023-06-01T15:08:44;16.50;;;5.30;;
47860;SDS011;33620;52.340;5.984;2023-06-01T15:11:09;15.43;;;5.13;;
47860;SDS011;33620;52.340;5.984;2023-06-01T15:13:34;15.50;;;5.53;;
47860;SDS011;33620;52.340;5.984;2023-06-01T15:16:02;15.30;;;5.00;;
47860;SDS011;33620;52.340;5.984;2023-06-01T15:18:27;10.25;;;4.68;;
47860;SDS011;33620;52.340;5.984;2023-06-01T15:20:53;11.55;;;4.85;;
47860;SDS011;33620;52.340;5.984;2023-06-01T15:23:18;8.82;;;4.68;;
47860;SDS011;33620;52.340;5.984;2023-06-01T15:25:44;11.35;;;4.63;;
47860;SDS011;33620;52.340;5.984;2023-06-01T15:28:10;11.90;;;4.45;;
47860;SDS011;33620;52.340;5.984;2023-06-01T15:30:36;12.75;;;4.72;;